Latest Weather Observations for Bushy Park

IDT60801

Issued at 11:35 pm EST Wednesday 23 July 2014 (issued every 30 minutes, with the page automatically refreshed every 10 minutes)

About weather observations | Map of weather stations | Latest weather observations for TAS | Other Formats
Station Details ID: 095003 Name: BUSHY PARK (BUSHY PARK ESTATES) Lat: -42.71 Lon: 146.90 Height: 27.0 m
Data from the previous 72 hours. | See also: Recent months at Bushy Park
Date/Time
EST
Temp
°C
App
Temp
°C
Dew
Point
Rel
Hum
%
Delta-T
°C
Wind Press
QNH
hPa
Press
MSL
hPa
Rain
since 9 am
mm
Dir
 
Spd
km/h
Gust
km/h
Spd
kts
Gust
kts
23/11:30pm -0.2 - - - - NW 7 9 4 5 - - 0.0
23/11:00pm 0.2 - - - - N 4 7 2 4 - - 0.0
23/10:30pm 0.1 - - - - W 6 7 3 4 - - 0.0
23/10:00pm 0.4 - - - - CALM 0 0 0 0 - - 0.0
23/09:30pm 1.0 -1.7 0.5 96 0.2 ESE 4 7 2 4 - - 0.0
23/09:00pm 1.4 -1.6 0.9 96 0.2 N 6 7 3 4 - - 0.0
23/08:30pm 1.9 -1.6 1.1 94 0.3 SW 9 9 5 5 - - 0.0
23/08:00pm 2.6 0.9 1.8 94 0.3 CALM 0 4 0 2 - - 0.0
23/07:30pm 2.9 1.2 2.1 94 0.3 ESE 0 0 0 0 - - 0.0
23/07:00pm 4.4 1.6 3.4 93 0.4 WNW 7 11 4 6 - - 0.0
23/06:30pm 4.5 1.3 3.0 90 0.6 W 9 13 5 7 - - 0.0
23/06:00pm 5.2 2.7 4.0 92 0.5 WNW 6 9 3 5 - - 0.0
23/05:30pm 6.2 3.6 4.4 88 0.8 S 7 9 4 5 - - 0.0
23/05:00pm 8.4 6.1 5.5 82 1.3 S 7 9 4 5 - - 0.0
23/04:30pm 10.0 7.7 5.7 74 2.0 ESE 7 7 4 4 - - 0.0
23/04:00pm 11.2 9.9 5.9 70 2.5 ESE 2 7 1 4 - - 0.0
23/03:30pm 12.3 10.5 5.5 63 3.2 E 4 7 2 4 - - 0.0
23/03:00pm 13.6 12.6 5.4 57 3.8 CALM 0 0 0 0 - - 0.0
23/02:30pm 12.5 10.6 5.0 60 3.5 ESE 4 7 2 4 - - 0.0
23/02:00pm 12.5 11.3 4.7 59 3.6 CALM 0 6 0 3 - - 0.0
23/01:30pm 11.2 9.4 5.6 68 2.6 E 4 7 2 4 - - 0.0
23/01:00pm 10.4 8.3 5.9 73 2.1 ENE 6 9 3 5 - - 0.0
23/12:30pm 10.0 7.2 5.0 71 2.3 NNE 9 9 5 5 - - 0.0
23/12:00pm 8.7 6.3 5.4 80 1.5 NE 7 9 4 5 - - 0.0
23/11:30am 6.9 4.5 5.1 88 0.8 NE 7 9 4 5 - - 0.0
23/11:00am 4.9 2.3 4.4 97 0.2 N 7 9 4 5 - - 0.0
23/10:30am 3.9 0.9 3.9 100 0.0 N 9 11 5 6 - - 0.0
23/10:00am 3.2 0.4 3.2 100 0.0 NNE 7 9 4 5 - - 0.0
23/09:30am 2.8 0.9 2.6 99 0.1 NNE 2 6 1 3 - - 0.0
23/09:00am 1.9 0.2 1.9 100 0.0 CALM 0 0 0 0 - - 0.0
23/08:30am 1.5 -0.3 1.0 96 0.2 CALM 0 0 0 0 - - 0.0
23/08:00am 0.6 -1.7 0.3 98 0.1 SSE 2 7 1 4 - - 0.0
23/07:30am -0.1 - - - - CALM 0 0 0 0 - - 0.0
23/07:00am -0.1 - - - - N 6 7 3 4 - - 0.0
23/06:30am 0.1 - - - - W 7 9 4 5 - - 0.0
23/06:00am 0.8 -1.1 0.3 96 0.2 NE 0 0 0 0 - - 0.0
23/05:30am 1.1 -1.6 0.6 96 0.2 N 4 9 2 5 - - 0.0
23/05:00am 1.2 -0.6 1.2 100 0.0 CALM 0 0 0 0 - - 0.0
23/04:30am 1.3 -1.9 1.0 98 0.1 NNW 7 7 4 4 - - 0.0
23/04:00am 2.3 0.6 2.0 98 0.1 CALM 0 0 0 0 - - 0.0
23/03:30am 3.5 2.1 3.3 99 0.1 CALM 0 0 0 0 - - 0.0
23/03:00am 4.3 1.8 3.8 97 0.2 N 6 7 3 4 - - 0.0
23/02:30am 4.5 2.0 4.0 97 0.2 NNW 6 7 3 4 - - 0.0
23/02:00am 4.5 2.0 3.8 95 0.3 N 6 9 3 5 - - 0.0
23/01:30am 4.5 3.1 3.8 95 0.3 CALM 0 0 0 0 - - 0.0
23/01:00am 4.7 3.4 4.0 95 0.3 CALM 0 0 0 0 - - 0.0
23/12:30am 4.6 2.9 3.9 95 0.3 SSE 2 7 1 4 - - 0.0
23/12:00am 4.4 2.6 3.7 95 0.3 N 2 7 1 4 - - 0.0
 
Date/Time
EST
Temp
°C
App
Temp
°C
Dew
Point
Rel
Hum
%
Delta-T
°C
Wind Press
QNH
hPa
Press
MSL
hPa
Rain
since 9 am
mm
Dir
 
Spd
km/h
Gust
km/h
Spd
kts
Gust
kts
22/11:30pm 4.3 2.9 3.6 95 0.3 CALM 0 0 0 0 - - 0.0
22/11:00pm 4.2 2.8 3.5 95 0.3 CALM 0 0 0 0 - - 0.0
22/10:30pm 4.2 2.4 3.7 97 0.2 N 2 9 1 5 - - 0.0
22/10:00pm 4.2 2.4 3.7 97 0.2 N 2 6 1 3 - - 0.0
22/09:30pm 3.9 2.4 3.2 95 0.3 CALM 0 0 0 0 - - 0.0
22/09:00pm 4.0 2.6 3.3 95 0.3 CALM 0 0 0 0 - - 0.0
22/08:30pm 4.4 3.0 3.4 93 0.4 CALM 0 6 0 3 - - 0.0
22/08:00pm 5.2 3.6 4.3 94 0.4 N 2 6 1 3 - - 0.0
22/07:30pm 5.2 3.9 4.0 92 0.5 CALM 0 0 0 0 - - 0.0
22/07:00pm 5.2 3.9 4.0 92 0.5 CALM 0 0 0 0 - - 0.0
22/06:30pm 5.1 3.8 3.9 92 0.5 CALM 0 0 0 0 - - 0.0
22/06:00pm 4.8 1.7 3.6 92 0.5 NW 9 11 5 6 - - 0.0
22/05:30pm 5.4 4.0 3.8 89 0.7 CALM 0 0 0 0 - - 0.0
22/05:00pm 6.7 5.5 4.4 85 1.0 CALM 0 0 0 0 - - 0.0
22/04:30pm 7.9 6.7 4.5 79 1.5 CALM 0 0 0 0 - - 0.0
22/04:00pm 8.6 6.2 4.1 73 2.0 SSE 6 7 3 4 - - 0.0
22/03:30pm 8.3 6.2 4.0 74 1.9 ENE 4 7 2 4 - - 0.0
22/03:00pm 7.8 6.5 3.9 76 1.7 CALM 0 4 0 2 - - 0.0
22/02:30pm 7.6 4.9 3.7 76 1.7 N 7 9 4 5 - - 0.0
22/02:00pm 8.1 5.3 3.2 71 2.1 N 7 11 4 6 - - 0.0
22/01:30pm 6.9 3.7 2.9 76 1.7 N 9 11 5 6 - - 0.0
22/01:00pm 5.5 2.7 2.3 80 1.3 NE 6 9 3 5 - - 0.0
22/12:30pm 5.1 2.4 2.7 84 1.0 N 6 9 3 5 - - 0.0
22/12:00pm 2.9 0.8 1.9 93 0.4 NE 2 7 1 4 - - 0.0
22/11:30am 2.4 -0.5 1.6 94 0.3 NE 6 11 3 6 - - 0.0
22/11:00am 2.0 -1.1 1.2 94 0.3 N 7 9 4 5 - - 0.0
22/10:30am 1.6 -1.9 1.1 96 0.2 N 9 11 5 6 - - 0.0
22/10:00am 1.2 -2.4 0.9 98 0.1 N 9 13 5 7 - - 0.0
22/09:30am 1.2 -2.3 1.2 100 0.0 N 9 11 5 6 - - 0.0
22/09:00am 0.9 -2.7 0.6 98 0.1 NNW 9 11 5 6 - - 0.2
22/08:30am 1.0 -2.5 1.0 100 0.0 N 9 11 5 6 - - 0.2
22/08:00am 1.2 -2.4 0.9 98 0.1 N 9 11 5 6 - - 0.2
22/07:30am 1.1 -2.5 0.8 98 0.1 NNW 9 13 5 7 - - 0.2
22/07:00am 1.4 -1.7 1.1 98 0.1 NNW 7 9 4 5 - - 0.2
22/06:30am 1.6 -1.9 1.3 98 0.1 N 9 9 5 5 - - 0.2
22/06:00am 1.7 -1.8 1.4 98 0.1 NNW 9 9 5 5 - - 0.2
22/05:30am 1.8 -1.2 1.8 100 0.0 N 7 7 4 4 - - 0.2
22/05:00am 1.7 -1.2 1.4 98 0.1 N 6 7 3 4 - - 0.2
22/04:30am 1.5 -0.3 1.0 96 0.2 CALM 0 0 0 0 - - 0.2
22/04:00am 1.1 -1.9 0.8 98 0.1 N 6 7 3 4 - - 0.0
22/03:30am 0.8 -1.1 0.5 98 0.1 CALM 0 0 0 0 - - 0.0
22/03:00am 0.4 - - - - CALM 0 0 0 0 - - 0.0
22/02:30am 0.2 - - - - CALM 0 0 0 0 - - 0.0
22/02:00am 0.2 - - - - CALM 0 0 0 0 - - 0.0
22/01:30am 0.0 - - - - CALM 0 0 0 0 - - 0.0
22/01:00am -0.1 - - - - ENE 2 6 1 3 - - 0.0
22/12:30am -0.4 - - - - N 6 7 3 4 - - 0.0
22/12:00am -0.8 - - - - CALM 0 0 0 0 - - 0.0
 
Date/Time
EST
Temp
°C
App
Temp
°C
Dew
Point
Rel
Hum
%
Delta-T
°C
Wind Press
QNH
hPa
Press
MSL
hPa
Rain
since 9 am
mm
Dir
 
Spd
km/h
Gust
km/h
Spd
kts
Gust
kts
21/11:30pm -0.7 - - - - CALM 0 0 0 0 - - 0.0
21/11:00pm -1.1 - - - - CALM 0 0 0 0 - - 0.0
21/10:30pm -0.9 - - - - NW 7 7 4 4 - - 0.0
21/10:00pm -0.5 - - - - CALM 0 0 0 0 - - 0.0
21/09:30pm -0.5 - - - - NNW 7 7 4 4 - - 0.0
21/09:00pm -0.1 - - - - CALM 0 0 0 0 - - 0.0
21/08:30pm 0.4 - - - - NNW 2 6 1 3 - - 0.0
21/08:00pm 0.7 -1.6 0.2 96 0.2 SW 2 7 1 4 - - 0.0
21/07:30pm 1.1 -0.8 0.3 94 0.3 CALM 0 0 0 0 - - 0.0
21/07:00pm 1.3 -1.7 0.8 96 0.2 SW 6 9 3 5 - - 0.0
21/06:30pm 1.7 -1.9 0.9 94 0.3 SW 9 11 5 6 - - 0.0
21/06:00pm 2.1 0.3 1.3 94 0.3 CALM 0 0 0 0 - - 0.0
21/05:30pm 3.2 1.6 2.5 95 0.3 CALM 0 0 0 0 - - 0.0
21/05:00pm 4.3 2.8 2.8 90 0.6 CALM 0 0 0 0 - - 0.0
21/04:30pm 6.2 4.8 3.4 82 1.2 CALM 0 0 0 0 - - 0.0
21/04:00pm 7.4 5.9 3.2 75 1.8 CALM 0 0 0 0 - - 0.0
21/03:30pm 7.1 5.7 3.4 77 1.6 CALM 0 0 0 0 - - 0.0
21/03:00pm 7.9 5.7 3.5 74 1.9 NNE 4 9 2 5 - - 0.0
21/02:30pm 6.9 4.2 3.6 79 1.4 N 7 9 4 5 - - 0.0
21/02:00pm 6.6 4.4 3.3 79 1.4 N 4 9 2 5 - - 0.0
21/01:30pm 6.3 3.4 2.7 78 1.5 N 7 11 4 6 - - 0.0
21/01:00pm 6.4 3.5 2.8 78 1.5 SSW 7 9 4 5 - - 0.0
21/12:30pm 6.5 4.1 2.4 75 1.7 SE 4 7 2 4 - - 0.0
21/12:00pm 4.4 1.1 2.4 87 0.8 NNW 9 11 5 6 - - 0.0
21/11:30am 4.0 1.0 2.3 89 0.7 N 7 11 4 6 - - 0.0
21/11:00am 3.5 0.7 2.3 92 0.5 NNE 6 9 3 5 - - 0.0
21/10:30am 2.9 1.3 2.7 99 0.1 CALM 0 0 0 0 - - 0.0
21/10:00am 2.5 -0.3 2.0 96 0.2 NNE 6 7 3 4 - - 0.0
21/09:30am 1.9 -1.2 1.4 96 0.2 N 7 9 4 5 - - 0.0
21/09:00am 1.2 - - - - N 7 9 4 5 - - 0.0
21/08:30am 0.3 - - - - NW 7 9 4 5 - - 0.0
21/08:00am 0.1 - - - - CALM 0 0 0 0 - - 0.0
21/07:30am -0.3 - - - - CALM 0 0 0 0 - - 0.0
21/07:00am -0.6 - - - - CALM 0 0 0 0 - - 0.0
21/06:30am -1.0 - - - - CALM 0 0 0 0 - - 0.0
21/06:00am -1.5 - - - - CALM 0 0 0 0 - - 0.0
21/05:30am -1.8 - - - - CALM 0 0 0 0 - - 0.0
21/05:00am -1.9 - - - - NNW 6 9 3 5 - - 0.0
21/04:30am -1.9 - - - - CALM 0 0 0 0 - - 0.0
21/04:00am -1.4 - - - - CALM 0 0 0 0 - - 0.0
21/03:30am -1.4 - - - - CALM 0 0 0 0 - - 0.0
21/03:00am -1.3 - - - - CALM 0 0 0 0 - - 0.0
21/02:30am -1.6 - - - - CALM 0 0 0 0 - - 0.0
21/02:00am -1.3 - - - - CALM 0 0 0 0 - - 0.0
21/01:30am -1.2 - - - - W 2 7 1 4 - - 0.0
21/01:00am -1.2 - - - - CALM 0 0 0 0 - - 0.0
21/12:30am -0.5 - - - - CALM 0 0 0 0 - - 0.0
21/12:00am -0.4 - - - - CALM 0 0 0 0 - - 0.0

Other Formats:

Comma delimited format used in spreadsheet applications
http://www.bom.gov.au/fwo/IDT60801/IDT60801.94964.axf

JavaScript Object Notation format (JSON) in row-major order
http://www.bom.gov.au/fwo/IDT60801/IDT60801.94964.json